Time;durP1;ratioP1;P1;durP2;ratioP2;P2;SDS_P1;SDS_P2;PMS_P1;PMS_P2;Temp;Humidity;BMP_temperature;BMP_pressure;BME280_temperature;BME280_humidity;BME280_pressure;Samples;Min_cycle;Max_cycle;Signal;HPM_P1;HPM_P2
2023/04/13 00:01:08;;;;;;;15.90;11.73;;;;;;;;;;4973356;28;20035;-78
2023/04/13 00:03:34;;;;;;;17.75;11.60;;;;;;;;;;5004304;28;20089;-77
2023/04/13 00:06:02;;;;;;;17.90;11.63;;;;;;;;;;4969851;28;20031;-77
2023/04/13 00:08:29;;;;;;;17.05;11.57;;;;;;;;;;4971483;28;20481;-76
2023/04/13 00:10:56;;;;;;;14.05;10.80;;;;;;;;;;4973285;28;20523;-78
2023/04/13 00:13:23;;;;;;;16.42;10.45;;;;;;;;;;4972903;28;20177;-77
2023/04/13 00:15:49;;;;;;;18.50;10.93;;;;;;;;;;4973104;28;20034;-78
2023/04/13 00:18:15;;;;;;;15.43;10.02;;;;;;;;;;4972865;28;20031;-76
2023/04/13 00:20:42;;;;;;;12.95;9.40;;;;;;;;;;4972582;28;20026;-79
2023/04/13 00:23:08;;;;;;;16.75;10.77;;;;;;;;;;4950245;28;20505;-78
2023/04/13 00:25:34;;;;;;;18.33;10.80;;;;;;;;;;4952347;29;20106;-78
2023/04/13 00:28:05;;;;;;;22.95;12.60;;;;;;;;;;4974163;28;20609;-78
2023/04/13 00:30:31;;;;;;;27.10;13.18;;;;;;;;;;4952393;28;20035;-77
2023/04/13 00:32:57;;;;;;;26.35;12.45;;;;;;;;;;4990367;28;20042;-76
2023/04/13 00:35:25;;;;;;;19.83;11.07;;;;;;;;;;4984747;28;20035;-76
2023/04/13 00:37:52;;;;;;;16.63;10.30;;;;;;;;;;4964438;28;20033;-78
2023/04/13 00:40:18;;;;;;;16.85;9.98;;;;;;;;;;4987986;28;20425;-77
2023/04/13 00:42:48;;;;;;;16.23;10.63;;;;;;;;;;4972880;28;20086;-76
2023/04/13 00:45:17;;;;;;;19.25;11.38;;;;;;;;;;5004196;28;20066;-76
2023/04/13 00:47:47;;;;;;;24.33;12.20;;;;;;;;;;4972235;28;20031;-76
2023/04/13 00:50:17;;;;;;;16.88;11.15;;;;;;;;;;5003903;28;20035;-76
2023/04/13 00:52:44;;;;;;;17.00;11.05;;;;;;;;;;4996650;28;20095;-77
2023/04/13 00:55:11;;;;;;;20.77;11.57;;;;;;;;;;5003920;28;20113;-78
2023/04/13 00:57:39;;;;;;;22.95;11.30;;;;;;;;;;5003746;28;20026;-78
2023/04/13 01:00:09;;;;;;;24.35;12.15;;;;;;;;;;4972844;28;20481;-77
2023/04/13 01:02:40;;;;;;;22.42;11.18;;;;;;;;;;4975300;28;20031;-77
2023/04/13 01:05:11;;;;;;;18.10;10.70;;;;;;;;;;4977058;28;20070;-77
2023/04/13 01:08:00;;;;;;;18.98;10.82;;;;;;;;;;4967984;28;20038;-78
2023/04/13 01:10:27;;;;;;;22.90;12.25;;;;;;;;;;4975159;28;20121;-78
2023/04/13 01:13:11;;;;;;;17.45;11.77;;;;;;;;;;5007603;28;20041;-78
2023/04/13 01:16:02;;;;;;;18.45;11.15;;;;;;;;;;4974984;28;20065;-78
2023/04/13 01:18:34;;;;;;;18.70;11.38;;;;;;;;;;4974728;28;20031;-78
2023/04/13 01:21:01;;;;;;;22.60;11.85;;;;;;;;;;4985617;28;20086;-76
2023/04/13 01:23:50;;;;;;;24.13;10.80;;;;;;;;;;4953716;29;20041;-78
2023/04/13 01:26:16;;;;;;;28.30;11.70;;;;;;;;;;4971555;28;20043;-78
2023/04/13 01:28:44;;;;;;;19.20;10.80;;;;;;;;;;4958947;28;20038;-78
2023/04/13 01:31:11;;;;;;;20.30;11.88;;;;;;;;;;4987742;28;20039;-77
2023/04/13 01:33:41;;;;;;;19.23;11.20;;;;;;;;;;4974036;28;20500;-76
2023/04/13 01:36:10;;;;;;;16.70;9.95;;;;;;;;;;4987684;28;20458;-77
2023/04/13 01:38:36;;;;;;;15.32;10.15;;;;;;;;;;4970446;28;20030;-77
2023/04/13 01:41:05;;;;;;;16.58;10.68;;;;;;;;;;4990712;28;20042;-77
2023/04/13 01:43:33;;;;;;;16.65;10.93;;;;;;;;;;5007465;28;20492;-77
2023/04/13 01:46:12;;;;;;;17.02;11.00;;;;;;;;;;4975178;28;20053;-78
2023/04/13 01:49:07;;;;;;;18.73;11.18;;;;;;;;;;4974281;28;20039;-78
2023/04/13 01:51:38;;;;;;;23.05;10.70;;;;;;;;;;4999393;28;20094;-78
2023/04/13 01:54:15;;;;;;;16.02;10.40;;;;;;;;;;4957314;28;20026;-78
2023/04/13 01:56:44;;;;;;;17.75;11.20;;;;;;;;;;5007330;28;20035;-78
2023/04/13 01:59:10;;;;;;;19.83;11.10;;;;;;;;;;4973966;28;20023;-76
2023/04/13 02:01:40;;;;;;;13.15;10.10;;;;;;;;;;5007695;28;20043;-77
2023/04/13 02:04:06;;;;;;;17.98;9.77;;;;;;;;;;4968445;28;20493;-78
2023/04/13 02:06:32;;;;;;;15.80;10.15;;;;;;;;;;4955426;28;20031;-77
2023/04/13 02:09:05;;;;;;;17.42;10.40;;;;;;;;;;4970203;28;20130;-77
2023/04/13 02:11:33;;;;;;;15.38;10.35;;;;;;;;;;4979358;28;20042;-78
2023/04/13 02:14:01;;;;;;;14.98;10.50;;;;;;;;;;4954149;28;20484;-76
2023/04/13 02:16:28;;;;;;;22.48;10.63;;;;;;;;;;4954505;28;20046;-77
2023/04/13 02:18:57;;;;;;;20.10;10.68;;;;;;;;;;4962172;28;20499;-77
2023/04/13 02:21:24;;;;;;;17.15;10.95;;;;;;;;;;4969068;28;20446;-78
2023/04/13 02:23:51;;;;;;;23.33;10.88;;;;;;;;;;4970762;28;20031;-78
2023/04/13 02:26:17;;;;;;;21.02;11.63;;;;;;;;;;4954571;28;20035;-79
2023/04/13 02:28:44;;;;;;;18.35;10.18;;;;;;;;;;4974278;28;20067;-79
2023/04/13 02:31:15;;;;;;;18.25;10.20;;;;;;;;;;4970614;28;20122;-79
2023/04/13 02:33:43;;;;;;;18.92;10.63;;;;;;;;;;4962471;28;20563;-77
2023/04/13 02:36:09;;;;;;;12.65;9.40;;;;;;;;;;4968890;28;20031;-78
2023/04/13 02:38:42;;;;;;;16.45;9.43;;;;;;;;;;4954408;28;20039;-77
2023/04/13 02:41:21;;;;;;;16.95;9.52;;;;;;;;;;4954134;28;20046;-79
2023/04/13 02:43:51;;;;;;;19.65;10.48;;;;;;;;;;4952375;28;20031;-77
2023/04/13 02:46:19;;;;;;;16.95;8.02;;;;;;;;;;4952707;28;20042;-78
2023/04/13 02:48:46;;;;;;;12.85;8.13;;;;;;;;;;4992429;28;20057;-78
2023/04/13 02:51:12;;;;;;;16.88;8.50;;;;;;;;;;4953778;28;20489;-78
2023/04/13 02:53:41;;;;;;;13.65;7.85;;;;;;;;;;4954244;29;20043;-77
2023/04/13 02:56:08;;;;;;;14.05;8.00;;;;;;;;;;4978814;28;20038;-76
2023/04/13 02:58:34;;;;;;;11.10;7.35;;;;;;;;;;4954094;28;20544;-77
2023/04/13 03:01:04;;;;;;;14.45;7.63;;;;;;;;;;4950967;28;20035;-76
2023/04/13 03:03:32;;;;;;;9.93;7.55;;;;;;;;;;4946210;29;20035;-77
2023/04/13 03:06:00;;;;;;;14.50;8.27;;;;;;;;;;4953926;29;20086;-78
2023/04/13 03:08:37;;;;;;;10.70;7.18;;;;;;;;;;4946916;29;20488;-77
2023/04/13 03:11:08;;;;;;;10.52;7.05;;;;;;;;;;4982502;28;20031;-77
2023/04/13 03:13:37;;;;;;;13.65;7.25;;;;;;;;;;4986105;28;20122;-78
2023/04/13 03:16:04;;;;;;;8.80;6.25;;;;;;;;;;4954141;29;20038;-78
2023/04/13 03:18:31;;;;;;;13.45;7.18;;;;;;;;;;4986102;28;20493;-79
2023/04/13 03:20:57;;;;;;;11.68;7.05;;;;;;;;;;4970099;28;20434;-78
2023/04/13 03:23:29;;;;;;;12.55;7.15;;;;;;;;;;4986017;28;20039;-78
2023/04/13 03:25:57;;;;;;;12.43;7.00;;;;;;;;;;4969216;28;20037;-78
2023/04/13 03:28:23;;;;;;;13.50;8.38;;;;;;;;;;4953625;28;20119;-77
2023/04/13 03:30:50;;;;;;;10.45;6.47;;;;;;;;;;4953890;28;20408;-77
2023/04/13 03:33:17;;;;;;;10.80;6.95;;;;;;;;;;4969739;28;20031;-77
2023/04/13 03:35:43;;;;;;;14.70;7.05;;;;;;;;;;4954858;28;20085;-78
2023/04/13 03:38:17;;;;;;;18.27;7.03;;;;;;;;;;4984549;28;20020;-75
2023/04/13 03:40:46;;;;;;;16.75;8.73;;;;;;;;;;4954747;28;20042;-77
2023/04/13 03:43:13;;;;;;;16.80;8.30;;;;;;;;;;4953471;28;20189;-77
2023/04/13 03:45:44;;;;;;;19.83;7.57;;;;;;;;;;4953359;29;20038;-76
2023/04/13 03:48:18;;;;;;;13.25;7.32;;;;;;;;;;4954666;28;20109;-78
2023/04/13 03:50:45;;;;;;;24.90;8.27;;;;;;;;;;4985811;28;20039;-77
2023/04/13 03:53:14;;;;;;;15.15;7.55;;;;;;;;;;4953381;28;20038;-77
2023/04/13 03:55:43;;;;;;;15.38;7.15;;;;;;;;;;4953603;28;20050;-77
2023/04/13 03:58:10;;;;;;;11.73;7.22;;;;;;;;;;4985177;28;20489;-77
2023/04/13 04:00:35;;;;;;;12.68;7.60;;;;;;;;;;4953076;29;20047;-78
2023/04/13 04:03:11;;;;;;;13.88;8.07;;;;;;;;;;4954324;28;20501;-78
2023/04/13 04:05:57;;;;;;;12.10;7.35;;;;;;;;;;4953169;28;20117;-77
2023/04/13 04:08:25;;;;;;;26.33;10.45;;;;;;;;;;4974791;28;20043;-78
2023/04/13 04:10:54;;;;;;;19.95;8.13;;;;;;;;;;4974647;28;20101;-78
2023/04/13 04:13:22;;;;;;;24.83;9.20;;;;;;;;;;4952173;29;20058;-78
2023/04/13 04:15:51;;;;;;;25.95;8.82;;;;;;;;;;4952487;28;20030;-79
2023/04/13 04:18:17;;;;;;;19.90;9.20;;;;;;;;;;4952517;28;20086;-79
2023/04/13 04:20:43;;;;;;;23.60;8.73;;;;;;;;;;4985157;28;20027;-78
2023/04/13 04:23:11;;;;;;;19.85;8.32;;;;;;;;;;4952730;28;20035;-79
2023/04/13 04:25:58;;;;;;;15.25;7.40;;;;;;;;;;4948440;28;20053;-78
2023/04/13 04:28:49;;;;;;;17.00;7.18;;;;;;;;;;4952163;28;20031;-80
2023/04/13 04:31:18;;;;;;;12.90;7.03;;;;;;;;;;4937156;29;20501;-78
2023/04/13 04:33:50;;;;;;;21.73;6.95;;;;;;;;;;4951334;28;20122;-76
2023/04/13 04:36:19;;;;;;;12.38;6.72;;;;;;;;;;4951934;28;20568;-79
2023/04/13 04:39:01;;;;;;;14.93;7.43;;;;;;;;;;4984495;28;20393;-78
2023/04/13 04:41:31;;;;;;;13.70;7.07;;;;;;;;;;4938033;29;20058;-78
2023/04/13 04:44:01;;;;;;;12.45;7.13;;;;;;;;;;4962737;28;20501;-78
2023/04/13 04:46:30;;;;;;;13.48;6.70;;;;;;;;;;4980049;28;20039;-77
2023/04/13 04:49:02;;;;;;;15.73;7.57;;;;;;;;;;4952132;28;20042;-77
2023/04/13 04:51:29;;;;;;;14.65;7.70;;;;;;;;;;4985453;28;20039;-77
2023/04/13 04:53:57;;;;;;;11.93;7.43;;;;;;;;;;4952100;29;20042;-78
2023/04/13 04:56:24;;;;;;;18.17;8.02;;;;;;;;;;4966729;28;20397;-79
2023/04/13 04:58:52;;;;;;;11.98;6.53;;;;;;;;;;4951985;28;20024;-77
2023/04/13 05:01:25;;;;;;;16.92;7.15;;;;;;;;;;4984598;28;20125;-78
2023/04/13 05:03:58;;;;;;;10.95;7.00;;;;;;;;;;4952302;28;20163;-77
2023/04/13 05:06:34;;;;;;;22.05;8.35;;;;;;;;;;4984599;28;20118;-78
2023/04/13 05:09:05;;;;;;;18.70;8.90;;;;;;;;;;4935889;28;20083;-79
2023/04/13 05:11:32;;;;;;;18.67;9.23;;;;;;;;;;4984399;28;20035;-78
2023/04/13 05:14:00;;;;;;;21.27;8.70;;;;;;;;;;4984378;28;20039;-78
2023/04/13 05:16:29;;;;;;;14.38;8.27;;;;;;;;;;4984081;28;20038;-79
2023/04/13 05:19:00;;;;;;;17.20;8.50;;;;;;;;;;4966975;28;20434;-80
2023/04/13 05:21:52;;;;;;;14.48;9.02;;;;;;;;;;4957735;28;20048;-79
2023/04/13 05:24:18;;;;;;;18.80;9.35;;;;;;;;;;4965225;28;20047;-78
2023/04/13 05:26:44;;;;;;;15.27;9.93;;;;;;;;;;4960191;28;20034;-78
2023/04/13 05:29:15;;;;;;;20.33;10.23;;;;;;;;;;4967828;28;20043;-79
2023/04/13 05:31:43;;;;;;;17.40;9.35;;;;;;;;;;4951450;28;20031;-78
2023/04/13 05:34:10;;;;;;;16.23;7.82;;;;;;;;;;4952991;29;20508;-79
2023/04/13 05:36:38;;;;;;;16.20;8.30;;;;;;;;;;4983818;28;20106;-79
2023/04/13 05:39:10;;;;;;;16.42;8.43;;;;;;;;;;4983693;28;20134;-79
2023/04/13 05:41:37;;;;;;;16.73;8.05;;;;;;;;;;4967579;28;20119;-80
2023/04/13 05:44:02;;;;;;;12.13;8.20;;;;;;;;;;4984127;28;20035;-78
2023/04/13 05:46:30;;;;;;;16.17;8.15;;;;;;;;;;4983623;28;20039;-78
2023/04/13 05:49:00;;;;;;;15.50;7.85;;;;;;;;;;4954483;29;20031;-78
2023/04/13 05:51:31;;;;;;;11.48;7.00;;;;;;;;;;4956999;28;20445;-78
2023/04/13 05:53:57;;;;;;;14.00;7.47;;;;;;;;;;4955484;29;20030;-79
2023/04/13 05:56:28;;;;;;;13.57;7.75;;;;;;;;;;4971077;28;20118;-80
2023/04/13 05:58:55;;;;;;;12.38;7.47;;;;;;;;;;4940049;29;20027;-78
2023/04/13 06:01:28;;;;;;;10.57;6.80;;;;;;;;;;4956449;28;20023;-76
2023/04/13 06:03:55;;;;;;;13.25;7.00;;;;;;;;;;4955888;29;20114;-79
2023/04/13 06:06:21;;;;;;;14.77;7.50;;;;;;;;;;4955718;28;20031;-80
2023/04/13 06:08:48;;;;;;;12.57;7.82;;;;;;;;;;4986183;28;20035;-79
2023/04/13 06:11:15;;;;;;;10.30;7.65;;;;;;;;;;4969216;28;20027;-79
2023/04/13 06:13:43;;;;;;;9.18;6.95;;;;;;;;;;4957515;28;20059;-80
2023/04/13 06:16:09;;;;;;;11.38;7.88;;;;;;;;;;4955953;29;20042;-80
2023/04/13 06:18:36;;;;;;;12.80;7.25;;;;;;;;;;4956968;28;20040;-81
2023/04/13 06:21:02;;;;;;;11.27;7.18;;;;;;;;;;4990090;28;20023;-80
2023/04/13 06:23:28;;;;;;;10.73;7.20;;;;;;;;;;4987161;28;20047;-80
2023/04/13 06:25:57;;;;;;;8.88;6.63;;;;;;;;;;4955311;28;20114;-79
2023/04/13 06:28:41;;;;;;;11.20;7.50;;;;;;;;;;4955177;28;20046;-79
2023/04/13 06:31:07;;;;;;;12.25;7.03;;;;;;;;;;4988302;28;20036;-80
2023/04/13 06:33:33;;;;;;;11.13;7.13;;;;;;;;;;4973368;28;20042;-79
2023/04/13 06:35:59;;;;;;;10.13;7.20;;;;;;;;;;4966484;28;20106;-81
2023/04/13 06:38:26;;;;;;;10.45;7.35;;;;;;;;;;4953966;28;20094;-81
2023/04/13 06:41:01;;;;;;;10.98;7.22;;;;;;;;;;4955921;28;20074;-81
2023/04/13 06:43:29;;;;;;;10.43;7.32;;;;;;;;;;4954722;28;20102;-81
2023/04/13 06:46:13;;;;;;;12.63;7.40;;;;;;;;;;4970720;28;20038;-80
2023/04/13 06:48:42;;;;;;;11.18;7.38;;;;;;;;;;4954764;28;20047;-81
2023/04/13 06:51:08;;;;;;;12.48;6.45;;;;;;;;;;4970561;28;20031;-80
2023/04/13 06:53:35;;;;;;;10.77;6.78;;;;;;;;;;4986924;28;20068;-80
2023/04/13 06:56:01;;;;;;;10.00;7.05;;;;;;;;;;4971343;28;20084;-81
2023/04/13 06:58:28;;;;;;;8.50;7.03;;;;;;;;;;4971680;28;20043;-80
2023/04/13 07:00:54;;;;;;;10.68;7.32;;;;;;;;;;4955181;28;20462;-81
2023/04/13 07:03:19;;;;;;;11.88;7.25;;;;;;;;;;4987323;28;20517;-79
2023/04/13 07:05:46;;;;;;;8.23;6.57;;;;;;;;;;4954240;28;20042;-81
2023/04/13 07:08:15;;;;;;;10.10;6.78;;;;;;;;;;4937868;29;20038;-81
2023/04/13 07:10:42;;;;;;;12.82;7.10;;;;;;;;;;4955306;28;20062;-82
2023/04/13 07:13:31;;;;;;;12.90;7.75;;;;;;;;;;4977746;28;20043;-79
2023/04/13 07:15:58;;;;;;;12.63;7.18;;;;;;;;;;4986037;28;20167;-80
2023/04/13 07:18:24;;;;;;;9.20;6.88;;;;;;;;;;4969271;28;20056;-80
2023/04/13 07:20:50;;;;;;;11.20;7.40;;;;;;;;;;4984546;28;20072;-79
2023/04/13 07:23:20;;;;;;;10.18;6.10;;;;;;;;;;4968442;28;20023;-82
2023/04/13 07:25:47;;;;;;;11.52;7.80;;;;;;;;;;4971390;28;20043;-81
2023/04/13 07:28:19;;;;;;;10.82;7.18;;;;;;;;;;4953839;29;20023;-77
2023/04/13 07:30:47;;;;;;;13.30;8.30;;;;;;;;;;4985765;28;20382;-78
2023/04/13 07:33:15;;;;;;;18.30;8.43;;;;;;;;;;4969542;28;20077;-79
2023/04/13 07:35:41;;;;;;;12.75;7.55;;;;;;;;;;4985784;28;20027;-78
2023/04/13 07:38:09;;;;;;;12.15;8.30;;;;;;;;;;4986191;28;20027;-77
2023/04/13 07:40:35;;;;;;;13.43;7.88;;;;;;;;;;4985421;28;20162;-77
2023/04/13 07:43:05;;;;;;;11.63;7.07;;;;;;;;;;4984990;28;20034;-78
2023/04/13 07:45:36;;;;;;;9.60;6.70;;;;;;;;;;4985341;28;20047;-78
2023/04/13 07:48:05;;;;;;;10.68;7.35;;;;;;;;;;4984777;28;20035;-77
2023/04/13 07:50:31;;;;;;;13.35;7.45;;;;;;;;;;4985575;28;20027;-77
2023/04/13 07:52:58;;;;;;;14.93;8.02;;;;;;;;;;4969350;28;20137;-78
2023/04/13 07:55:24;;;;;;;11.30;6.47;;;;;;;;;;4954674;28;20019;-76
2023/04/13 07:57:51;;;;;;;9.70;6.13;;;;;;;;;;4954544;28;20795;-78
2023/04/13 08:00:19;;;;;;;9.15;6.45;;;;;;;;;;4985093;28;20053;-78
2023/04/13 08:02:48;;;;;;;11.07;6.68;;;;;;;;;;4953291;28;20113;-77
2023/04/13 08:05:19;;;;;;;9.43;6.13;;;;;;;;;;4985528;28;20035;-77
2023/04/13 08:07:47;;;;;;;10.25;6.43;;;;;;;;;;4952853;29;20046;-80
2023/04/13 08:10:15;;;;;;;8.18;5.72;;;;;;;;;;4936422;29;20110;-78
2023/04/13 08:12:41;;;;;;;9.65;5.53;;;;;;;;;;4955568;28;20046;-80
2023/04/13 08:15:08;;;;;;;8.02;5.15;;;;;;;;;;4953835;28;20019;-79
2023/04/13 08:17:35;;;;;;;10.75;5.45;;;;;;;;;;4985162;28;20142;-78
2023/04/13 08:20:06;;;;;;;8.35;5.03;;;;;;;;;;4954065;28;20031;-77
2023/04/13 08:22:33;;;;;;;12.07;6.00;;;;;;;;;;4984846;28;20035;-78
2023/04/13 08:24:59;;;;;;;12.80;6.25;;;;;;;;;;4985979;28;20444;-78
2023/04/13 08:27:27;;;;;;;9.43;6.32;;;;;;;;;;4968194;28;20031;-80
2023/04/13 08:30:00;;;;;;;9.02;5.70;;;;;;;;;;4984831;28;20038;-79
2023/04/13 08:32:28;;;;;;;8.77;5.47;;;;;;;;;;4952353;28;20035;-79
2023/04/13 08:34:54;;;;;;;10.25;5.47;;;;;;;;;;4986182;28;20374;-80
2023/04/13 08:37:23;;;;;;;9.60;5.68;;;;;;;;;;4985516;28;20038;-79
2023/04/13 08:39:55;;;;;;;10.43;5.47;;;;;;;;;;4953258;28;20063;-80
2023/04/13 08:42:22;;;;;;;11.20;5.88;;;;;;;;;;4967102;28;20527;-80
2023/04/13 08:44:50;;;;;;;8.50;5.32;;;;;;;;;;4984571;28;20109;-78
2023/04/13 08:47:16;;;;;;;8.85;5.53;;;;;;;;;;4936829;29;20378;-80
2023/04/13 08:49:45;;;;;;;10.23;5.15;;;;;;;;;;4936022;28;20038;-80
2023/04/13 08:52:16;;;;;;;8.88;5.63;;;;;;;;;;4937503;29;20047;-79
2023/04/13 08:54:46;;;;;;;6.90;4.35;;;;;;;;;;4952732;28;20466;-79
2023/04/13 08:57:34;;;;;;;10.43;6.97;;;;;;;;;;4952136;29;20041;-82
2023/04/13 09:00:22;;;;;;;7.55;5.30;;;;;;;;;;4955522;28;20122;-81
2023/04/13 09:02:59;;;;;;;8.88;5.75;;;;;;;;;;4951969;29;20039;-80
2023/04/13 09:05:28;;;;;;;9.20;5.25;;;;;;;;;;4984767;28;20042;-78
2023/04/13 09:08:00;;;;;;;10.85;5.53;;;;;;;;;;4968577;28;20067;-78
2023/04/13 09:10:27;;;;;;;6.88;4.30;;;;;;;;;;4953849;28;20046;-79
2023/04/13 09:12:53;;;;;;;8.13;5.30;;;;;;;;;;4968168;28;20094;-79
2023/04/13 09:15:19;;;;;;;7.47;5.00;;;;;;;;;;4967429;28;20046;-79
2023/04/13 09:18:09;;;;;;;9.20;4.82;;;;;;;;;;4952150;28;20078;-79
2023/04/13 09:20:39;;;;;;;6.13;4.38;;;;;;;;;;4952391;28;20039;-80
2023/04/13 09:23:15;;;;;;;6.45;4.55;;;;;;;;;;4954951;28;20513;-80
2023/04/13 09:25:44;;;;;;;6.43;4.05;;;;;;;;;;4957913;28;20058;-78
2023/04/13 09:28:17;;;;;;;8.75;4.97;;;;;;;;;;4987318;28;20027;-76
2023/04/13 09:30:44;;;;;;;10.18;5.40;;;;;;;;;;4957229;28;20118;-78
2023/04/13 09:33:11;;;;;;;5.97;4.50;;;;;;;;;;4957072;28;20039;-79
2023/04/13 09:35:38;;;;;;;8.27;4.70;;;;;;;;;;4956924;28;20651;-78
2023/04/13 09:38:05;;;;;;;6.85;4.50;;;;;;;;;;4956438;28;20023;-78
2023/04/13 09:40:31;;;;;;;10.98;8.88;;;;;;;;;;4956942;28;20063;-78
2023/04/13 09:42:59;;;;;;;9.15;4.35;;;;;;;;;;4956669;28;20062;-79
2023/04/13 09:45:39;;;;;;;7.32;4.00;;;;;;;;;;4971228;28;20094;-81
2023/04/13 09:48:17;;;;;;;7.53;4.05;;;;;;;;;;4986893;28;20035;-78
2023/04/13 09:50:43;;;;;;;9.60;5.07;;;;;;;;;;4956243;28;20046;-79
2023/04/13 09:53:12;;;;;;;4.97;4.00;;;;;;;;;;4956183;29;20023;-78
2023/04/13 09:55:39;;;;;;;5.43;3.85;;;;;;;;;;4956211;28;20086;-79
2023/04/13 09:58:12;;;;;;;4.05;3.33;;;;;;;;;;4986676;28;20020;-78
2023/04/13 10:00:41;;;;;;;6.00;3.22;;;;;;;;;;4955388;28;20097;-79
2023/04/13 10:03:10;;;;;;;6.63;3.92;;;;;;;;;;4955244;28;20447;-79
2023/04/13 10:05:37;;;;;;;5.45;4.03;;;;;;;;;;4986976;28;20042;-79
2023/04/13 10:08:04;;;;;;;6.28;3.85;;;;;;;;;;4955171;28;20059;-79
2023/04/13 10:10:30;;;;;;;6.55;4.07;;;;;;;;;;4955953;28;20034;-79
2023/04/13 10:13:00;;;;;;;4.57;3.60;;;;;;;;;;4956427;28;20027;-78
2023/04/13 10:16:05;;;;;;;4.68;3.63;;;;;;;;;;4956111;28;20038;-79
2023/04/13 10:18:41;;;;;;;5.75;3.30;;;;;;;;;;4956531;28;20395;-79
2023/04/13 10:21:11;;;;;;;5.05;3.40;;;;;;;;;;4956105;28;20051;-81
2023/04/13 10:23:37;;;;;;;5.88;3.60;;;;;;;;;;4987388;28;20433;-81
2023/04/13 10:26:05;;;;;;;4.93;3.55;;;;;;;;;;4957275;28;20513;-79
2023/04/13 10:28:42;;;;;;;7.82;3.70;;;;;;;;;;4956928;28;20082;-80
2023/04/13 10:31:09;;;;;;;5.03;3.47;;;;;;;;;;4954336;28;20079;-81
2023/04/13 10:33:49;;;;;;;4.38;3.25;;;;;;;;;;4955214;28;20027;-81
2023/04/13 10:36:17;;;;;;;5.13;3.22;;;;;;;;;;4957006;28;20421;-81
2023/04/13 10:38:44;;;;;;;5.57;3.00;;;;;;;;;;4956755;28;20050;-81
2023/04/13 10:41:10;;;;;;;4.85;3.08;;;;;;;;;;4957009;28;20035;-81
2023/04/13 10:43:36;;;;;;;4.20;3.05;;;;;;;;;;4955417;29;20457;-80
2023/04/13 10:46:12;;;;;;;4.90;3.22;;;;;;;;;;4956839;28;20050;-80
2023/04/13 10:48:42;;;;;;;4.43;3.00;;;;;;;;;;4956905;28;20035;-81
2023/04/13 10:51:09;;;;;;;9.63;4.13;;;;;;;;;;4958636;28;20074;-79
2023/04/13 10:53:35;;;;;;;5.72;2.80;;;;;;;;;;4955739;28;20042;-80
2023/04/13 10:56:01;;;;;;;4.13;3.20;;;;;;;;;;4958093;28;20041;-76
2023/04/13 10:58:30;;;;;;;5.57;3.10;;;;;;;;;;4956238;28;20075;-79
2023/04/13 11:00:56;;;;;;;5.40;3.28;;;;;;;;;;4958231;28;20504;-78
2023/04/13 11:03:26;;;;;;;4.97;3.20;;;;;;;;;;4954269;29;20019;-77
2023/04/13 11:05:59;;;;;;;4.03;3.03;;;;;;;;;;4953988;28;20490;-77
2023/04/13 11:08:26;;;;;;;4.22;3.05;;;;;;;;;;4952792;29;20114;-76
2023/04/13 11:10:54;;;;;;;5.07;3.33;;;;;;;;;;4950501;28;20023;-75
2023/04/13 11:13:28;;;;;;;6.68;3.50;;;;;;;;;;4952133;28;20037;-77
2023/04/13 11:16:04;;;;;;;5.13;3.10;;;;;;;;;;4955814;28;20393;-76
2023/04/13 11:18:30;;;;;;;4.00;3.00;;;;;;;;;;4954773;28;20452;-77
2023/04/13 11:20:56;;;;;;;7.18;3.05;;;;;;;;;;4955087;28;20022;-77
2023/04/13 11:23:24;;;;;;;3.75;2.90;;;;;;;;;;4953568;29;20050;-75
2023/04/13 11:25:56;;;;;;;6.38;3.40;;;;;;;;;;4950288;29;20454;-78
2023/04/13 11:28:24;;;;;;;4.13;3.10;;;;;;;;;;4950687;28;20130;-77
2023/04/13 11:30:55;;;;;;;5.38;3.08;;;;;;;;;;4950011;28;20486;-77
2023/04/13 11:33:24;;;;;;;9.27;3.30;;;;;;;;;;4950338;29;20047;-75
2023/04/13 11:35:50;;;;;;;5.53;2.60;;;;;;;;;;4957331;28;20403;-76
2023/04/13 11:38:16;;;;;;;5.28;3.22;;;;;;;;;;4954504;29;20085;-77
2023/04/13 11:40:44;;;;;;;7.70;3.20;;;;;;;;;;4968632;28;20023;-77
2023/04/13 11:43:13;;;;;;;4.90;3.08;;;;;;;;;;4984242;28;20059;-76
2023/04/13 11:45:42;;;;;;;3.90;2.60;;;;;;;;;;4948567;28;20109;-79
2023/04/13 11:48:08;;;;;;;10.57;4.82;;;;;;;;;;4953245;28;20042;-79
2023/04/13 11:50:40;;;;;;;5.45;3.40;;;;;;;;;;4957772;28;20046;-78
2023/04/13 11:53:10;;;;;;;5.13;3.20;;;;;;;;;;4983890;28;20078;-79
2023/04/13 11:55:38;;;;;;;4.13;3.13;;;;;;;;;;4984026;28;20493;-79
2023/04/13 11:58:10;;;;;;;4.00;3.00;;;;;;;;;;4946979;28;20077;-78
2023/04/13 12:00:42;;;;;;;5.40;3.20;;;;;;;;;;4955136;28;20101;-86
2023/04/13 12:03:16;;;;;;;4.78;3.03;;;;;;;;;;4967796;28;20039;-79
2023/04/13 12:05:43;;;;;;;8.57;3.53;;;;;;;;;;4952695;28;20067;-78
2023/04/13 12:08:19;;;;;;;4.45;3.10;;;;;;;;;;4945764;28;20034;-76
2023/04/13 12:10:45;;;;;;;3.63;3.00;;;;;;;;;;4952514;28;20079;-78
2023/04/13 12:13:12;;;;;;;8.23;3.83;;;;;;;;;;4952758;28;20038;-77
2023/04/13 12:15:43;;;;;;;4.95;3.25;;;;;;;;;;4952916;28;20390;-77
2023/04/13 12:18:12;;;;;;;5.43;3.20;;;;;;;;;;4950933;28;20397;-76
2023/04/13 12:20:45;;;;;;;14.27;4.70;;;;;;;;;;4952921;29;20023;-76
2023/04/13 12:23:30;;;;;;;6.60;3.92;;;;;;;;;;4953051;28;20031;-75
2023/04/13 12:25:57;;;;;;;7.38;3.40;;;;;;;;;;4951536;29;20039;-76
2023/04/13 12:28:35;;;;;;;5.13;3.55;;;;;;;;;;4948687;28;20649;-78
2023/04/13 12:31:10;;;;;;;4.28;3.13;;;;;;;;;;4947399;28;20047;-76
2023/04/13 12:33:41;;;;;;;5.57;2.83;;;;;;;;;;4950254;28;20043;-78
2023/04/13 12:36:10;;;;;;;5.95;3.10;;;;;;;;;;4951320;28;20039;-77
2023/04/13 12:38:36;;;;;;;6.30;3.22;;;;;;;;;;4948661;28;20067;-76
2023/04/13 12:41:02;;;;;;;5.57;3.05;;;;;;;;;;4981124;28;20035;-79
2023/04/13 12:43:28;;;;;;;5.53;3.50;;;;;;;;;;4963987;28;20042;-77
2023/04/13 12:45:54;;;;;;;6.75;3.33;;;;;;;;;;4952299;28;20031;-78
2023/04/13 12:48:21;;;;;;;4.72;3.05;;;;;;;;;;4949144;28;20042;-75
2023/04/13 12:50:49;;;;;;;4.70;3.40;;;;;;;;;;4976541;28;20038;-77
2023/04/13 12:53:15;;;;;;;6.25;3.20;;;;;;;;;;4948879;28;20023;-79
2023/04/13 12:55:41;;;;;;;5.07;2.97;;;;;;;;;;4978954;28;20134;-78
2023/04/13 12:58:07;;;;;;;7.43;3.60;;;;;;;;;;4958384;28;20023;-78
2023/04/13 13:00:33;;;;;;;6.47;3.10;;;;;;;;;;4966614;28;20063;-79
2023/04/13 13:03:00;;;;;;;4.93;3.30;;;;;;;;;;4955716;28;20504;-81
2023/04/13 13:05:26;;;;;;;6.53;3.30;;;;;;;;;;4954978;28;20039;-80
2023/04/13 13:07:52;;;;;;;4.28;3.28;;;;;;;;;;4957839;28;20065;-80
2023/04/13 13:10:18;;;;;;;4.43;3.00;;;;;;;;;;4959183;28;20058;-75
2023/04/13 13:12:44;;;;;;;7.57;3.35;;;;;;;;;;4955272;28;20038;-77
2023/04/13 13:15:13;;;;;;;5.35;3.13;;;;;;;;;;4982751;28;20158;-76
2023/04/13 13:17:40;;;;;;;5.38;3.13;;;;;;;;;;4952607;28;20097;-77
2023/04/13 13:20:12;;;;;;;3.92;2.67;;;;;;;;;;4954659;28;20073;-77
2023/04/13 13:22:39;;;;;;;7.93;3.22;;;;;;;;;;4951806;28;20087;-76
2023/04/13 13:25:07;;;;;;;5.45;2.80;;;;;;;;;;4982135;28;20496;-76
2023/04/13 13:27:37;;;;;;;5.07;2.85;;;;;;;;;;4953161;28;20117;-78
2023/04/13 13:30:05;;;;;;;4.90;3.20;;;;;;;;;;4952859;28;20038;-78
2023/04/13 13:32:31;;;;;;;4.35;2.80;;;;;;;;;;4951652;28;20509;-79
2023/04/13 13:34:57;;;;;;;5.13;2.95;;;;;;;;;;4954174;28;20441;-79
2023/04/13 13:37:23;;;;;;;6.97;3.72;;;;;;;;;;4952211;28;20027;-76
2023/04/13 13:39:49;;;;;;;6.30;3.00;;;;;;;;;;4951540;28;20027;-77
2023/04/13 13:42:17;;;;;;;5.43;3.10;;;;;;;;;;4955336;28;20515;-76
2023/04/13 13:44:43;;;;;;;5.85;3.22;;;;;;;;;;4955205;28;20061;-77
2023/04/13 13:47:09;;;;;;;7.35;3.20;;;;;;;;;;4969958;28;20315;-77
2023/04/13 13:49:40;;;;;;;4.75;2.85;;;;;;;;;;4954991;28;20035;-76
2023/04/13 13:52:12;;;;;;;5.55;3.15;;;;;;;;;;4955889;28;20062;-77
2023/04/13 13:54:48;;;;;;;7.93;3.00;;;;;;;;;;4978913;28;20039;-78
2023/04/13 13:57:16;;;;;;;4.30;3.17;;;;;;;;;;4952095;28;20074;-78
2023/04/13 13:59:41;;;;;;;4.97;2.83;;;;;;;;;;4955299;28;20473;-77
2023/04/13 14:02:08;;;;;;;4.40;3.00;;;;;;;;;;4951477;28;20085;-77
2023/04/13 14:04:35;;;;;;;5.82;2.65;;;;;;;;;;4945075;28;20039;-76
2023/04/13 14:07:03;;;;;;;4.85;3.30;;;;;;;;;;4939267;28;20028;-77
2023/04/13 14:09:31;;;;;;;5.57;3.20;;;;;;;;;;4954591;28;20059;-76
2023/04/13 14:11:56;;;;;;;6.03;2.80;;;;;;;;;;4952780;28;20047;-76
2023/04/13 14:14:22;;;;;;;4.65;2.90;;;;;;;;;;4959778;28;20058;-75
2023/04/13 14:16:49;;;;;;;5.25;3.28;;;;;;;;;;4976046;28;20049;-78
2023/04/13 14:19:19;;;;;;;4.63;2.97;;;;;;;;;;4972631;28;20070;-80
2023/04/13 14:21:47;;;;;;;5.30;3.10;;;;;;;;;;4982857;28;20039;-81
2023/04/13 14:24:15;;;;;;;4.68;2.97;;;;;;;;;;4978650;28;20019;-78
2023/04/13 14:26:42;;;;;;;5.00;2.95;;;;;;;;;;4954542;28;20521;-80
2023/04/13 14:29:08;;;;;;;4.45;3.08;;;;;;;;;;4952497;28;20509;-80
2023/04/13 14:31:36;;;;;;;4.72;3.08;;;;;;;;;;4937367;28;20481;-80
2023/04/13 14:34:02;;;;;;;4.05;2.65;;;;;;;;;;4953595;28;20118;-78
2023/04/13 14:36:28;;;;;;;4.97;3.03;;;;;;;;;;4953539;28;20409;-80
2023/04/13 14:38:54;;;;;;;3.85;2.88;;;;;;;;;;4954361;28;20497;-80
2023/04/13 14:41:21;;;;;;;4.13;2.63;;;;;;;;;;4984481;28;20516;-78
2023/04/13 14:43:47;;;;;;;4.13;2.83;;;;;;;;;;4952501;28;20389;-78
2023/04/13 14:46:13;;;;;;;3.97;2.70;;;;;;;;;;4947594;28;20118;-77